sensor_id;sensor_type;location;lat;lon;timestamp;P1;P2;P0
63305;PMS5003;50735;52.060;1.248;2023-08-24T00:01:07;4;4;
63305;PMS5003;50735;52.060;1.248;2023-08-24T00:03:39;5;5;
63305;PMS5003;50735;52.060;1.248;2023-08-24T00:06:11;6;5;
63305;PMS5003;50735;52.060;1.248;2023-08-24T00:08:44;5;4;
63305;PMS5003;50735;52.060;1.248;2023-08-24T00:11:16;6;4;
63305;PMS5003;50735;52.060;1.248;2023-08-24T00:13:47;7;5;
63305;PMS5003;50735;52.060;1.248;2023-08-24T00:16:19;6;5;
63305;PMS5003;50735;52.060;1.248;2023-08-24T00:18:51;8;6;
63305;PMS5003;50735;52.060;1.248;2023-08-24T00:21:23;7;4;
63305;PMS5003;50735;52.060;1.248;2023-08-24T00:23:55;6;6;
63305;PMS5003;50735;52.060;1.248;2023-08-24T00:26:26;8;5;
63305;PMS5003;50735;52.060;1.248;2023-08-24T00:28:58;4;4;
63305;PMS5003;50735;52.060;1.248;2023-08-24T00:31:30;6;4;
63305;PMS5003;50735;52.060;1.248;2023-08-24T00:34:01;6;6;
63305;PMS5003;50735;52.060;1.248;2023-08-24T00:36:33;8;5;
63305;PMS5003;50735;52.060;1.248;2023-08-24T00:39:05;6;5;
63305;PMS5003;50735;52.060;1.248;2023-08-24T00:41:37;4;4;
63305;PMS5003;50735;52.060;1.248;2023-08-24T00:44:08;4;4;
63305;PMS5003;50735;52.060;1.248;2023-08-24T00:46:40;7;6;
63305;PMS5003;50735;52.060;1.248;2023-08-24T00:49:12;5;5;
63305;PMS5003;50735;52.060;1.248;2023-08-24T00:51:45;6;6;
63305;PMS5003;50735;52.060;1.248;2023-08-24T00:54:17;5;5;
63305;PMS5003;50735;52.060;1.248;2023-08-24T00:56:49;5;3;
63305;PMS5003;50735;52.060;1.248;2023-08-24T00:59:21;4;4;
63305;PMS5003;50735;52.060;1.248;2023-08-24T01:01:53;4;4;
63305;PMS5003;50735;52.060;1.248;2023-08-24T01:04:25;6;5;
63305;PMS5003;50735;52.060;1.248;2023-08-24T01:06:57;4;4;
63305;PMS5003;50735;52.060;1.248;2023-08-24T01:09:29;7;5;
63305;PMS5003;50735;52.060;1.248;2023-08-24T01:12:02;6;4;
63305;PMS5003;50735;52.060;1.248;2023-08-24T01:14:51;7;6;
63305;PMS5003;50735;52.060;1.248;2023-08-24T01:17:31;4;4;
63305;PMS5003;50735;52.060;1.248;2023-08-24T01:20:07;5;5;
63305;PMS5003;50735;52.060;1.248;2023-08-24T01:22:41;5;5;
63305;PMS5003;50735;52.060;1.248;2023-08-24T01:25:34;5;5;
63305;PMS5003;50735;52.060;1.248;2023-08-24T01:28:11;8;5;
63305;PMS5003;50735;52.060;1.248;2023-08-24T01:30:45;5;5;
63305;PMS5003;50735;52.060;1.248;2023-08-24T01:33:17;6;5;
63305;PMS5003;50735;52.060;1.248;2023-08-24T01:35:50;7;6;
63305;PMS5003;50735;52.060;1.248;2023-08-24T01:38:22;6;5;
63305;PMS5003;50735;52.060;1.248;2023-08-24T01:40:58;6;5;
63305;PMS5003;50735;52.060;1.248;2023-08-24T01:43:37;7;5;
63305;PMS5003;50735;52.060;1.248;2023-08-24T01:46:11;7;5;
63305;PMS5003;50735;52.060;1.248;2023-08-24T01:48:45;4;4;
63305;PMS5003;50735;52.060;1.248;2023-08-24T01:51:18;6;6;
63305;PMS5003;50735;52.060;1.248;2023-08-24T01:53:50;6;6;
63305;PMS5003;50735;52.060;1.248;2023-08-24T01:56:24;5;5;
63305;PMS5003;50735;52.060;1.248;2023-08-24T01:58:56;8;7;
63305;PMS5003;50735;52.060;1.248;2023-08-24T02:01:28;8;6;
63305;PMS5003;50735;52.060;1.248;2023-08-24T02:04:00;6;6;
63305;PMS5003;50735;52.060;1.248;2023-08-24T02:06:32;6;4;
63305;PMS5003;50735;52.060;1.248;2023-08-24T02:09:03;6;6;
63305;PMS5003;50735;52.060;1.248;2023-08-24T02:11:35;5;5;
63305;PMS5003;50735;52.060;1.248;2023-08-24T02:14:07;6;6;
63305;PMS5003;50735;52.060;1.248;2023-08-24T02:16:39;4;4;
63305;PMS5003;50735;52.060;1.248;2023-08-24T02:19:10;6;6;
63305;PMS5003;50735;52.060;1.248;2023-08-24T02:21:42;6;5;
63305;PMS5003;50735;52.060;1.248;2023-08-24T02:24:14;7;6;
63305;PMS5003;50735;52.060;1.248;2023-08-24T02:26:46;8;7;
63305;PMS5003;50735;52.060;1.248;2023-08-24T02:29:17;9;6;
63305;PMS5003;50735;52.060;1.248;2023-08-24T02:31:49;4;4;
63305;PMS5003;50735;52.060;1.248;2023-08-24T02:34:21;5;5;
63305;PMS5003;50735;52.060;1.248;2023-08-24T02:36:53;7;7;
63305;PMS5003;50735;52.060;1.248;2023-08-24T02:39:24;6;6;
63305;PMS5003;50735;52.060;1.248;2023-08-24T02:41:56;5;4;
63305;PMS5003;50735;52.060;1.248;2023-08-24T02:44:28;5;5;
63305;PMS5003;50735;52.060;1.248;2023-08-24T02:46:59;9;8;
63305;PMS5003;50735;52.060;1.248;2023-08-24T02:49:31;5;5;
63305;PMS5003;50735;52.060;1.248;2023-08-24T02:52:03;6;4;
63305;PMS5003;50735;52.060;1.248;2023-08-24T02:54:35;5;5;
63305;PMS5003;50735;52.060;1.248;2023-08-24T02:57:07;6;6;
63305;PMS5003;50735;52.060;1.248;2023-08-24T02:59:39;6;6;
63305;PMS5003;50735;52.060;1.248;2023-08-24T03:02:11;4;4;
63305;PMS5003;50735;52.060;1.248;2023-08-24T03:04:43;4;4;
63305;PMS5003;50735;52.060;1.248;2023-08-24T03:07:14;7;7;
63305;PMS5003;50735;52.060;1.248;2023-08-24T03:09:46;6;4;
63305;PMS5003;50735;52.060;1.248;2023-08-24T03:12:18;7;7;
63305;PMS5003;50735;52.060;1.248;2023-08-24T03:14:51;5;5;
63305;PMS5003;50735;52.060;1.248;2023-08-24T03:17:23;6;6;
63305;PMS5003;50735;52.060;1.248;2023-08-24T03:19:55;6;6;
63305;PMS5003;50735;52.060;1.248;2023-08-24T03:22:27;7;7;
63305;PMS5003;50735;52.060;1.248;2023-08-24T03:24:58;5;5;
63305;PMS5003;50735;52.060;1.248;2023-08-24T03:27:30;8;7;
63305;PMS5003;50735;52.060;1.248;2023-08-24T03:30:02;6;6;
63305;PMS5003;50735;52.060;1.248;2023-08-24T03:32:34;6;6;
63305;PMS5003;50735;52.060;1.248;2023-08-24T03:35:07;7;7;
63305;PMS5003;50735;52.060;1.248;2023-08-24T03:37:39;7;6;
63305;PMS5003;50735;52.060;1.248;2023-08-24T03:40:11;8;6;
63305;PMS5003;50735;52.060;1.248;2023-08-24T03:42:44;7;7;
63305;PMS5003;50735;52.060;1.248;2023-08-24T03:45:16;6;5;
63305;PMS5003;50735;52.060;1.248;2023-08-24T03:47:47;6;6;
63305;PMS5003;50735;52.060;1.248;2023-08-24T03:50:20;5;5;
63305;PMS5003;50735;52.060;1.248;2023-08-24T03:52:52;5;5;
63305;PMS5003;50735;52.060;1.248;2023-08-24T03:55:25;6;4;
63305;PMS5003;50735;52.060;1.248;2023-08-24T03:57:57;6;6;
63305;PMS5003;50735;52.060;1.248;2023-08-24T04:00:28;5;5;
63305;PMS5003;50735;52.060;1.248;2023-08-24T04:03:00;10;7;
63305;PMS5003;50735;52.060;1.248;2023-08-24T04:05:32;5;5;
63305;PMS5003;50735;52.060;1.248;2023-08-24T04:08:04;5;5;
63305;PMS5003;50735;52.060;1.248;2023-08-24T04:10:37;6;6;
63305;PMS5003;50735;52.060;1.248;2023-08-24T04:13:08;8;6;
63305;PMS5003;50735;52.060;1.248;2023-08-24T04:15:40;7;7;
63305;PMS5003;50735;52.060;1.248;2023-08-24T04:18:12;10;6;
63305;PMS5003;50735;52.060;1.248;2023-08-24T04:20:43;7;7;
63305;PMS5003;50735;52.060;1.248;2023-08-24T04:23:15;7;4;
63305;PMS5003;50735;52.060;1.248;2023-08-24T04:25:47;6;6;
63305;PMS5003;50735;52.060;1.248;2023-08-24T04:28:19;5;5;
63305;PMS5003;50735;52.060;1.248;2023-08-24T04:30:51;9;8;
63305;PMS5003;50735;52.060;1.248;2023-08-24T04:33:24;11;8;
63305;PMS5003;50735;52.060;1.248;2023-08-24T04:35:56;7;7;
63305;PMS5003;50735;52.060;1.248;2023-08-24T04:38:27;10;10;
63305;PMS5003;50735;52.060;1.248;2023-08-24T04:40:59;6;6;
63305;PMS5003;50735;52.060;1.248;2023-08-24T04:43:32;9;6;
63305;PMS5003;50735;52.060;1.248;2023-08-24T04:46:04;7;5;
63305;PMS5003;50735;52.060;1.248;2023-08-24T04:48:36;8;8;
63305;PMS5003;50735;52.060;1.248;2023-08-24T04:51:08;6;6;
63305;PMS5003;50735;52.060;1.248;2023-08-24T04:53:40;9;8;
63305;PMS5003;50735;52.060;1.248;2023-08-24T04:56:11;9;7;
63305;PMS5003;50735;52.060;1.248;2023-08-24T04:58:51;8;5;
63305;PMS5003;50735;52.060;1.248;2023-08-24T05:01:24;8;7;
63305;PMS5003;50735;52.060;1.248;2023-08-24T05:03:55;8;5;
63305;PMS5003;50735;52.060;1.248;2023-08-24T05:06:27;9;9;
63305;PMS5003;50735;52.060;1.248;2023-08-24T05:08:59;8;7;
63305;PMS5003;50735;52.060;1.248;2023-08-24T05:11:31;6;6;
63305;PMS5003;50735;52.060;1.248;2023-08-24T05:14:03;7;7;
63305;PMS5003;50735;52.060;1.248;2023-08-24T05:16:35;8;8;
63305;PMS5003;50735;52.060;1.248;2023-08-24T05:19:06;9;6;
63305;PMS5003;50735;52.060;1.248;2023-08-24T05:21:38;7;7;
63305;PMS5003;50735;52.060;1.248;2023-08-24T05:24:10;5;5;
63305;PMS5003;50735;52.060;1.248;2023-08-24T05:26:42;10;9;
63305;PMS5003;50735;52.060;1.248;2023-08-24T05:29:14;6;6;
63305;PMS5003;50735;52.060;1.248;2023-08-24T05:31:45;5;5;
63305;PMS5003;50735;52.060;1.248;2023-08-24T05:34:17;8;6;
63305;PMS5003;50735;52.060;1.248;2023-08-24T05:36:50;6;6;
63305;PMS5003;50735;52.060;1.248;2023-08-24T05:39:22;7;7;
63305;PMS5003;50735;52.060;1.248;2023-08-24T05:41:54;7;7;
63305;PMS5003;50735;52.060;1.248;2023-08-24T05:44:25;8;7;
63305;PMS5003;50735;52.060;1.248;2023-08-24T05:46:57;10;8;
63305;PMS5003;50735;52.060;1.248;2023-08-24T05:49:29;10;7;
63305;PMS5003;50735;52.060;1.248;2023-08-24T05:52:01;9;9;
63305;PMS5003;50735;52.060;1.248;2023-08-24T05:54:35;9;8;
63305;PMS5003;50735;52.060;1.248;2023-08-24T05:57:07;10;10;
63305;PMS5003;50735;52.060;1.248;2023-08-24T05:59:39;8;8;
63305;PMS5003;50735;52.060;1.248;2023-08-24T06:02:11;14;11;
63305;PMS5003;50735;52.060;1.248;2023-08-24T06:04:42;8;8;
63305;PMS5003;50735;52.060;1.248;2023-08-24T06:07:14;9;6;
63305;PMS5003;50735;52.060;1.248;2023-08-24T06:09:47;8;8;
63305;PMS5003;50735;52.060;1.248;2023-08-24T06:12:18;7;7;
63305;PMS5003;50735;52.060;1.248;2023-08-24T06:14:50;13;10;
63305;PMS5003;50735;52.060;1.248;2023-08-24T06:17:22;12;9;
63305;PMS5003;50735;52.060;1.248;2023-08-24T06:19:54;9;9;
63305;PMS5003;50735;52.060;1.248;2023-08-24T06:22:25;11;9;
63305;PMS5003;50735;52.060;1.248;2023-08-24T06:24:57;11;11;
63305;PMS5003;50735;52.060;1.248;2023-08-24T06:27:29;11;9;
63305;PMS5003;50735;52.060;1.248;2023-08-24T06:30:01;9;9;
63305;PMS5003;50735;52.060;1.248;2023-08-24T06:32:34;11;10;
63305;PMS5003;50735;52.060;1.248;2023-08-24T06:35:07;13;10;
63305;PMS5003;50735;52.060;1.248;2023-08-24T06:37:39;14;12;
63305;PMS5003;50735;52.060;1.248;2023-08-24T06:40:11;11;10;
63305;PMS5003;50735;52.060;1.248;2023-08-24T06:42:42;13;11;
63305;PMS5003;50735;52.060;1.248;2023-08-24T06:45:14;9;9;
63305;PMS5003;50735;52.060;1.248;2023-08-24T06:47:46;14;12;
63305;PMS5003;50735;52.060;1.248;2023-08-24T06:50:18;12;12;
63305;PMS5003;50735;52.060;1.248;2023-08-24T06:52:50;14;12;
63305;PMS5003;50735;52.060;1.248;2023-08-24T06:55:22;11;11;
63305;PMS5003;50735;52.060;1.248;2023-08-24T06:57:53;13;10;
63305;PMS5003;50735;52.060;1.248;2023-08-24T07:00:26;11;9;
63305;PMS5003;50735;52.060;1.248;2023-08-24T07:02:57;9;9;
63305;PMS5003;50735;52.060;1.248;2023-08-24T07:05:29;17;13;
63305;PMS5003;50735;52.060;1.248;2023-08-24T07:08:01;13;12;
63305;PMS5003;50735;52.060;1.248;2023-08-24T07:10:33;15;13;
63305;PMS5003;50735;52.060;1.248;2023-08-24T07:13:05;10;10;
63305;PMS5003;50735;52.060;1.248;2023-08-24T07:15:38;13;12;
63305;PMS5003;50735;52.060;1.248;2023-08-24T07:18:11;13;10;
63305;PMS5003;50735;52.060;1.248;2023-08-24T07:20:42;13;12;
63305;PMS5003;50735;52.060;1.248;2023-08-24T07:23:15;14;14;
63305;PMS5003;50735;52.060;1.248;2023-08-24T07:25:47;14;12;
63305;PMS5003;50735;52.060;1.248;2023-08-24T07:28:18;15;13;
63305;PMS5003;50735;52.060;1.248;2023-08-24T07:30:50;10;10;
63305;PMS5003;50735;52.060;1.248;2023-08-24T07:33:22;13;11;
63305;PMS5003;50735;52.060;1.248;2023-08-24T07:35:54;14;14;
63305;PMS5003;50735;52.060;1.248;2023-08-24T07:38:26;13;11;
63305;PMS5003;50735;52.060;1.248;2023-08-24T07:40:57;15;12;
63305;PMS5003;50735;52.060;1.248;2023-08-24T07:43:30;15;14;
63305;PMS5003;50735;52.060;1.248;2023-08-24T07:46:02;15;15;
63305;PMS5003;50735;52.060;1.248;2023-08-24T07:48:33;10;10;
63305;PMS5003;50735;52.060;1.248;2023-08-24T07:51:05;12;12;
63305;PMS5003;50735;52.060;1.248;2023-08-24T07:53:39;20;17;
63305;PMS5003;50735;52.060;1.248;2023-08-24T07:56:11;14;13;
63305;PMS5003;50735;52.060;1.248;2023-08-24T07:58:42;15;13;
63305;PMS5003;50735;52.060;1.248;2023-08-24T08:01:14;16;14;
63305;PMS5003;50735;52.060;1.248;2023-08-24T08:03:46;22;19;
63305;PMS5003;50735;52.060;1.248;2023-08-24T08:06:17;17;17;
63305;PMS5003;50735;52.060;1.248;2023-08-24T08:08:50;18;15;
63305;PMS5003;50735;52.060;1.248;2023-08-24T08:11:22;24;20;
63305;PMS5003;50735;52.060;1.248;2023-08-24T08:13:53;20;17;
63305;PMS5003;50735;52.060;1.248;2023-08-24T08:16:25;20;20;
63305;PMS5003;50735;52.060;1.248;2023-08-24T08:18:58;16;16;
63305;PMS5003;50735;52.060;1.248;2023-08-24T08:21:29;20;18;
63305;PMS5003;50735;52.060;1.248;2023-08-24T08:24:00;21;19;
63305;PMS5003;50735;52.060;1.248;2023-08-24T08:26:32;18;16;
63305;PMS5003;50735;52.060;1.248;2023-08-24T08:29:04;20;17;
63305;PMS5003;50735;52.060;1.248;2023-08-24T08:31:36;20;19;
63305;PMS5003;50735;52.060;1.248;2023-08-24T08:34:07;21;16;
63305;PMS5003;50735;52.060;1.248;2023-08-24T08:36:39;19;16;
63305;PMS5003;50735;52.060;1.248;2023-08-24T08:39:11;22;21;
63305;PMS5003;50735;52.060;1.248;2023-08-24T08:41:43;27;24;
63305;PMS5003;50735;52.060;1.248;2023-08-24T08:44:15;25;24;
63305;PMS5003;50735;52.060;1.248;2023-08-24T08:46:47;25;24;
63305;PMS5003;50735;52.060;1.248;2023-08-24T08:49:21;31;29;
63305;PMS5003;50735;52.060;1.248;2023-08-24T08:51:53;33;27;
63305;PMS5003;50735;52.060;1.248;2023-08-24T08:54:25;30;28;
63305;PMS5003;50735;52.060;1.248;2023-08-24T08:56:57;31;28;
63305;PMS5003;50735;52.060;1.248;2023-08-24T08:59:28;39;30;
63305;PMS5003;50735;52.060;1.248;2023-08-24T09:02:02;30;28;
63305;PMS5003;50735;52.060;1.248;2023-08-24T09:04:34;31;29;
63305;PMS5003;50735;52.060;1.248;2023-08-24T09:07:06;34;31;
63305;PMS5003;50735;52.060;1.248;2023-08-24T09:09:38;39;34;
63305;PMS5003;50735;52.060;1.248;2023-08-24T09:12:11;39;34;
63305;PMS5003;50735;52.060;1.248;2023-08-24T09:14:42;42;35;
63305;PMS5003;50735;52.060;1.248;2023-08-24T09:17:19;40;35;
63305;PMS5003;50735;52.060;1.248;2023-08-24T09:19:53;46;40;
63305;PMS5003;50735;52.060;1.248;2023-08-24T09:22:30;33;31;
63305;PMS5003;50735;52.060;1.248;2023-08-24T09:25:06;39;34;
63305;PMS5003;50735;52.060;1.248;2023-08-24T09:27:41;35;30;
63305;PMS5003;50735;52.060;1.248;2023-08-24T09:30:13;35;34;
63305;PMS5003;50735;52.060;1.248;2023-08-24T09:32:45;39;36;
63305;PMS5003;50735;52.060;1.248;2023-08-24T09:35:17;43;41;
63305;PMS5003;50735;52.060;1.248;2023-08-24T09:37:52;37;33;
63305;PMS5003;50735;52.060;1.248;2023-08-24T09:40:24;44;37;
63305;PMS5003;50735;52.060;1.248;2023-08-24T09:42:57;44;38;
63305;PMS5003;50735;52.060;1.248;2023-08-24T09:45:33;40;36;
63305;PMS5003;50735;52.060;1.248;2023-08-24T09:48:05;37;32;
63305;PMS5003;50735;52.060;1.248;2023-08-24T09:50:38;43;37;
63305;PMS5003;50735;52.060;1.248;2023-08-24T09:53:10;37;33;
63305;PMS5003;50735;52.060;1.248;2023-08-24T09:55:49;39;35;
63305;PMS5003;50735;52.060;1.248;2023-08-24T09:58:24;38;37;
63305;PMS5003;50735;52.060;1.248;2023-08-24T10:00:57;34;33;
63305;PMS5003;50735;52.060;1.248;2023-08-24T10:03:29;38;30;
63305;PMS5003;50735;52.060;1.248;2023-08-24T10:06:03;40;37;
63305;PMS5003;50735;52.060;1.248;2023-08-24T10:08:37;42;37;
63305;PMS5003;50735;52.060;1.248;2023-08-24T10:11:11;37;32;
63305;PMS5003;50735;52.060;1.248;2023-08-24T10:13:50;36;34;
63305;PMS5003;50735;52.060;1.248;2023-08-24T10:16:28;33;31;
63305;PMS5003;50735;52.060;1.248;2023-08-24T10:19:02;37;34;
63305;PMS5003;50735;52.060;1.248;2023-08-24T10:21:34;42;39;
63305;PMS5003;50735;52.060;1.248;2023-08-24T10:24:09;37;36;
63305;PMS5003;50735;52.060;1.248;2023-08-24T10:26:42;37;29;
63305;PMS5003;50735;52.060;1.248;2023-08-24T10:29:15;39;38;
63305;PMS5003;50735;52.060;1.248;2023-08-24T10:31:48;44;35;
63305;PMS5003;50735;52.060;1.248;2023-08-24T10:34:21;44;41;
63305;PMS5003;50735;52.060;1.248;2023-08-24T10:36:53;41;37;
63305;PMS5003;50735;52.060;1.248;2023-08-24T10:39:27;37;33;
63305;PMS5003;50735;52.060;1.248;2023-08-24T10:41:59;39;37;
63305;PMS5003;50735;52.060;1.248;2023-08-24T10:44:34;53;41;
63305;PMS5003;50735;52.060;1.248;2023-08-24T10:47:07;36;34;
63305;PMS5003;50735;52.060;1.248;2023-08-24T10:49:43;45;38;
63305;PMS5003;50735;52.060;1.248;2023-08-24T10:52:17;44;41;
63305;PMS5003;50735;52.060;1.248;2023-08-24T10:54:51;30;29;
63305;PMS5003;50735;52.060;1.248;2023-08-24T10:57:24;44;40;
63305;PMS5003;50735;52.060;1.248;2023-08-24T10:59:58;45;39;
63305;PMS5003;50735;52.060;1.248;2023-08-24T11:02:40;44;38;
63305;PMS5003;50735;52.060;1.248;2023-08-24T11:05:15;35;33;
63305;PMS5003;50735;52.060;1.248;2023-08-24T11:07:49;30;28;
63305;PMS5003;50735;52.060;1.248;2023-08-24T11:10:25;43;41;
63305;PMS5003;50735;52.060;1.248;2023-08-24T11:13:17;33;33;
63305;PMS5003;50735;52.060;1.248;2023-08-24T11:15:50;40;34;
63305;PMS5003;50735;52.060;1.248;2023-08-24T11:18:23;33;32;
63305;PMS5003;50735;52.060;1.248;2023-08-24T11:20:59;35;32;
63305;PMS5003;50735;52.060;1.248;2023-08-24T11:23:32;30;26;
63305;PMS5003;50735;52.060;1.248;2023-08-24T11:26:05;33;28;
63305;PMS5003;50735;52.060;1.248;2023-08-24T11:28:37;26;26;
63305;PMS5003;50735;52.060;1.248;2023-08-24T11:31:09;29;26;
63305;PMS5003;50735;52.060;1.248;2023-08-24T11:33:43;28;26;
63305;PMS5003;50735;52.060;1.248;2023-08-24T11:36:14;34;32;
63305;PMS5003;50735;52.060;1.248;2023-08-24T11:38:46;28;25;
63305;PMS5003;50735;52.060;1.248;2023-08-24T11:41:18;35;27;
63305;PMS5003;50735;52.060;1.248;2023-08-24T11:43:58;27;27;
63305;PMS5003;50735;52.060;1.248;2023-08-24T11:46:31;29;24;
63305;PMS5003;50735;52.060;1.248;2023-08-24T11:49:04;27;27;
63305;PMS5003;50735;52.060;1.248;2023-08-24T11:51:36;26;21;
63305;PMS5003;50735;52.060;1.248;2023-08-24T11:54:08;36;29;
63305;PMS5003;50735;52.060;1.248;2023-08-24T11:56:41;26;22;
63305;PMS5003;50735;52.060;1.248;2023-08-24T11:59:14;25;22;
63305;PMS5003;50735;52.060;1.248;2023-08-24T12:01:47;22;20;
63305;PMS5003;50735;52.060;1.248;2023-08-24T12:04:19;21;20;
63305;PMS5003;50735;52.060;1.248;2023-08-24T12:06:50;20;19;
63305;PMS5003;50735;52.060;1.248;2023-08-24T12:09:22;18;16;
63305;PMS5003;50735;52.060;1.248;2023-08-24T12:11:55;18;18;
63305;PMS5003;50735;52.060;1.248;2023-08-24T12:14:27;20;16;
63305;PMS5003;50735;52.060;1.248;2023-08-24T12:16:58;12;12;
63305;PMS5003;50735;52.060;1.248;2023-08-24T12:19:40;18;18;
63305;PMS5003;50735;52.060;1.248;2023-08-24T12:22:13;19;16;
63305;PMS5003;50735;52.060;1.248;2023-08-24T12:24:45;17;15;
63305;PMS5003;50735;52.060;1.248;2023-08-24T12:27:17;17;14;
63305;PMS5003;50735;52.060;1.248;2023-08-24T12:29:50;21;18;
63305;PMS5003;50735;52.060;1.248;2023-08-24T12:32:21;18;17;
63305;PMS5003;50735;52.060;1.248;2023-08-24T12:34:53;17;15;
63305;PMS5003;50735;52.060;1.248;2023-08-24T12:37:25;14;11;
63305;PMS5003;50735;52.060;1.248;2023-08-24T12:39:58;15;15;
63305;PMS5003;50735;52.060;1.248;2023-08-24T12:42:29;15;13;
63305;PMS5003;50735;52.060;1.248;2023-08-24T12:45:01;13;12;
63305;PMS5003;50735;52.060;1.248;2023-08-24T12:47:34;15;14;
63305;PMS5003;50735;52.060;1.248;2023-08-24T12:50:06;11;10;
63305;PMS5003;50735;52.060;1.248;2023-08-24T12:52:38;13;12;
63305;PMS5003;50735;52.060;1.248;2023-08-24T12:55:10;15;13;
63305;PMS5003;50735;52.060;1.248;2023-08-24T12:57:42;10;10;
63305;PMS5003;50735;52.060;1.248;2023-08-24T13:00:14;13;11;
63305;PMS5003;50735;52.060;1.248;2023-08-24T13:02:46;9;6;
63305;PMS5003;50735;52.060;1.248;2023-08-24T13:05:17;6;6;
63305;PMS5003;50735;52.060;1.248;2023-08-24T13:07:49;7;7;
63305;PMS5003;50735;52.060;1.248;2023-08-24T13:10:20;9;7;
63305;PMS5003;50735;52.060;1.248;2023-08-24T13:12:52;7;7;
63305;PMS5003;50735;52.060;1.248;2023-08-24T13:15:24;14;11;
63305;PMS5003;50735;52.060;1.248;2023-08-24T13:17:55;10;6;
63305;PMS5003;50735;52.060;1.248;2023-08-24T13:20:27;6;6;
63305;PMS5003;50735;52.060;1.248;2023-08-24T13:22:59;11;7;
63305;PMS5003;50735;52.060;1.248;2023-08-24T13:25:30;8;6;
63305;PMS5003;50735;52.060;1.248;2023-08-24T13:28:02;7;7;
63305;PMS5003;50735;52.060;1.248;2023-08-24T13:30:34;8;7;
63305;PMS5003;50735;52.060;1.248;2023-08-24T13:33:06;4;4;
63305;PMS5003;50735;52.060;1.248;2023-08-24T13:35:38;10;8;
63305;PMS5003;50735;52.060;1.248;2023-08-24T13:38:09;7;7;
63305;PMS5003;50735;52.060;1.248;2023-08-24T13:40:41;7;6;
63305;PMS5003;50735;52.060;1.248;2023-08-24T13:43:13;9;6;
63305;PMS5003;50735;52.060;1.248;2023-08-24T13:45:44;6;6;
63305;PMS5003;50735;52.060;1.248;2023-08-24T13:48:16;7;5;
63305;PMS5003;50735;52.060;1.248;2023-08-24T13:50:49;8;6;
63305;PMS5003;50735;52.060;1.248;2023-08-24T13:53:21;6;6;
63305;PMS5003;50735;52.060;1.248;2023-08-24T13:55:53;6;6;
63305;PMS5003;50735;52.060;1.248;2023-08-24T13:58:24;6;6;
63305;PMS5003;50735;52.060;1.248;2023-08-24T14:00:56;5;5;
63305;PMS5003;50735;52.060;1.248;2023-08-24T14:03:28;6;6;
63305;PMS5003;50735;52.060;1.248;2023-08-24T14:06:00;5;5;
63305;PMS5003;50735;52.060;1.248;2023-08-24T14:08:32;7;7;
63305;PMS5003;50735;52.060;1.248;2023-08-24T14:11:04;7;7;
63305;PMS5003;50735;52.060;1.248;2023-08-24T14:13:35;8;6;
63305;PMS5003;50735;52.060;1.248;2023-08-24T14:16:08;10;7;
63305;PMS5003;50735;52.060;1.248;2023-08-24T14:18:39;5;5;
63305;PMS5003;50735;52.060;1.248;2023-08-24T14:21:11;6;5;
63305;PMS5003;50735;52.060;1.248;2023-08-24T14:23:43;6;6;
63305;PMS5003;50735;52.060;1.248;2023-08-24T14:26:14;9;4;
63305;PMS5003;50735;52.060;1.248;2023-08-24T14:28:47;7;7;
63305;PMS5003;50735;52.060;1.248;2023-08-24T14:31:20;10;7;
63305;PMS5003;50735;52.060;1.248;2023-08-24T14:33:52;6;5;
63305;PMS5003;50735;52.060;1.248;2023-08-24T14:36:25;5;5;
63305;PMS5003;50735;52.060;1.248;2023-08-24T14:38:57;4;4;
63305;PMS5003;50735;52.060;1.248;2023-08-24T14:41:29;6;6;
63305;PMS5003;50735;52.060;1.248;2023-08-24T14:44:01;4;4;
63305;PMS5003;50735;52.060;1.248;2023-08-24T14:46:32;5;5;
63305;PMS5003;50735;52.060;1.248;2023-08-24T14:49:04;5;5;
63305;PMS5003;50735;52.060;1.248;2023-08-24T14:51:36;7;5;
63305;PMS5003;50735;52.060;1.248;2023-08-24T14:54:07;10;10;
63305;PMS5003;50735;52.060;1.248;2023-08-24T14:56:39;4;4;
63305;PMS5003;50735;52.060;1.248;2023-08-24T14:59:11;7;4;
63305;PMS5003;50735;52.060;1.248;2023-08-24T15:01:42;7;5;
63305;PMS5003;50735;52.060;1.248;2023-08-24T15:04:14;6;6;
63305;PMS5003;50735;52.060;1.248;2023-08-24T15:06:46;5;5;
63305;PMS5003;50735;52.060;1.248;2023-08-24T15:09:17;4;4;
63305;PMS5003;50735;52.060;1.248;2023-08-24T15:11:49;6;4;
63305;PMS5003;50735;52.060;1.248;2023-08-24T15:14:21;6;4;
63305;PMS5003;50735;52.060;1.248;2023-08-24T15:16:52;6;5;
63305;PMS5003;50735;52.060;1.248;2023-08-24T15:19:24;12;10;
63305;PMS5003;50735;52.060;1.248;2023-08-24T15:21:56;12;10;
63305;PMS5003;50735;52.060;1.248;2023-08-24T15:24:27;12;12;
63305;PMS5003;50735;52.060;1.248;2023-08-24T15:26:59;15;14;
63305;PMS5003;50735;52.060;1.248;2023-08-24T15:29:31;17;14;
63305;PMS5003;50735;52.060;1.248;2023-08-24T15:32:03;18;15;
63305;PMS5003;50735;52.060;1.248;2023-08-24T15:34:35;24;18;
63305;PMS5003;50735;52.060;1.248;2023-08-24T15:37:06;19;17;
63305;PMS5003;50735;52.060;1.248;2023-08-24T15:39:39;27;23;
63305;PMS5003;50735;52.060;1.248;2023-08-24T15:42:12;25;24;
63305;PMS5003;50735;52.060;1.248;2023-08-24T15:44:44;30;27;
63305;PMS5003;50735;52.060;1.248;2023-08-24T15:47:15;25;24;
63305;PMS5003;50735;52.060;1.248;2023-08-24T15:49:47;37;31;
63305;PMS5003;50735;52.060;1.248;2023-08-24T15:52:19;25;23;
63305;PMS5003;50735;52.060;1.248;2023-08-24T15:54:51;25;23;
63305;PMS5003;50735;52.060;1.248;2023-08-24T15:57:24;33;32;
63305;PMS5003;50735;52.060;1.248;2023-08-24T15:59:56;29;26;
63305;PMS5003;50735;52.060;1.248;2023-08-24T16:02:28;29;25;
63305;PMS5003;50735;52.060;1.248;2023-08-24T16:05:00;23;22;
63305;PMS5003;50735;52.060;1.248;2023-08-24T16:07:32;25;23;
63305;PMS5003;50735;52.060;1.248;2023-08-24T16:10:04;24;22;
63305;PMS5003;50735;52.060;1.248;2023-08-24T16:12:36;27;27;
63305;PMS5003;50735;52.060;1.248;2023-08-24T16:15:08;28;24;
63305;PMS5003;50735;52.060;1.248;2023-08-24T16:17:41;29;27;
63305;PMS5003;50735;52.060;1.248;2023-08-24T16:20:12;29;27;
63305;PMS5003;50735;52.060;1.248;2023-08-24T16:22:44;26;23;
63305;PMS5003;50735;52.060;1.248;2023-08-24T16:25:16;25;22;
63305;PMS5003;50735;52.060;1.248;2023-08-24T16:27:48;23;23;
63305;PMS5003;50735;52.060;1.248;2023-08-24T16:30:20;25;22;
63305;PMS5003;50735;52.060;1.248;2023-08-24T16:32:52;32;29;
63305;PMS5003;50735;52.060;1.248;2023-08-24T16:35:24;26;24;
63305;PMS5003;50735;52.060;1.248;2023-08-24T16:37:56;17;15;
63305;PMS5003;50735;52.060;1.248;2023-08-24T16:40:28;16;15;
63305;PMS5003;50735;52.060;1.248;2023-08-24T16:43:00;13;13;
63305;PMS5003;50735;52.060;1.248;2023-08-24T16:45:32;13;13;
63305;PMS5003;50735;52.060;1.248;2023-08-24T16:48:05;14;13;
63305;PMS5003;50735;52.060;1.248;2023-08-24T16:50:36;12;9;
63305;PMS5003;50735;52.060;1.248;2023-08-24T16:53:08;13;9;
63305;PMS5003;50735;52.060;1.248;2023-08-24T16:55:39;12;11;
63305;PMS5003;50735;52.060;1.248;2023-08-24T16:58:11;11;10;
63305;PMS5003;50735;52.060;1.248;2023-08-24T17:00:43;15;13;
63305;PMS5003;50735;52.060;1.248;2023-08-24T17:03:15;12;9;
63305;PMS5003;50735;52.060;1.248;2023-08-24T17:05:46;11;8;
63305;PMS5003;50735;52.060;1.248;2023-08-24T17:08:18;13;10;